• Join FlightAware (Why Join?)
  • Login
  • US Flag 
12:41AM EDT


 

Airport Tracker/Info


-or-


 

Live Flight TrackerFlight Track Log ✈ GJS3706 ✈ 15-May-2013 ✈ KPWM - KORD

Flight Track Log - Related Links

Times and Time Zones

All times are in EDT time to prevent confusion due to time zone crossing. See the GJS3706 flight status page for this flight to view local times or setup timezone preferences in your user account.

Time Position Orientation Groundspeed Altitude Reporting Facility
EDT Latitude Longitude Course Direction KTS MPH feet Rate Location/Type
07:01AM 43.6464 -70.3514 277° West 152 175 1,200  Level Boston Center
07:02AM 43.6517 -70.4114 277° West 168 193 3,100 1,980 Climbing Boston Center
07:03AM 43.6658 -70.5056 282° West 215 247 5,200 2,400 Climbing Boston Center
07:04AM 43.6817 -70.5911 284° West 253 291 8,000 2,700 Climbing Boston Center
07:05AM 43.6917 -70.6972 277° West 261 300 10,600 2,100 Climbing Boston Center
07:06AM 43.6744 -70.8011 257° West 282 325 12,200 1,800 Climbing Boston Center
07:07AM 43.6533 -70.9364 258° West 324 373 14,200 1,800 Climbing Boston Center
07:08AM 43.6358 -71.0372 257° West 337 388 15,800 1,980 Climbing Boston Center
07:09AM 43.6106 -71.1928 257° West 342 394 18,200 2,040 Climbing Boston Center
07:10AM 43.5892 -71.3222 257° West 348 400 19,900 1,680 Climbing Boston Center
07:11AM 43.5653 -71.4572 256° West 354 407 21,600 1,560 Climbing Boston Center
07:12AM 43.5436 -71.5922 258° West 354 407 23,100 1,320 Climbing Boston Center
07:13AM 43.5194 -71.7300 256° West 361 415 24,300 1,140 Climbing Boston Center
07:14AM 43.4953 -71.8733 257° West 373 429 25,400 1,080 Climbing Boston Center
07:15AM 43.4708 -72.0194 257° West 384 442 26,500 1,140 Climbing Boston Center
07:16AM 43.4442 -72.1656 256° West 389 448 27,700 1,140 Climbing Boston Center
07:17AM 43.4194 -72.3144 257° West 395 455 28,800 1,080 Climbing Boston Center
07:18AM 43.3925 -72.4600 256° West 395 455 29,900 1,080 Climbing Boston Center
07:19AM 43.3861 -72.5914 266° West 395 455 31,000 1,080 Climbing Boston Center
07:20AM 43.3775 -72.7372 265° West 390 449 32,100 1,080 Climbing Boston Center
07:21AM 43.3708 -72.8769 266° West 385 443 33,200 900 Climbing Boston Center
07:22AM 43.3658 -73.0169 267° West 385 443 33,900 840 Climbing Boston Center
07:23AM 43.3589 -73.1569 266° West 385 443 34,900 960 Climbing Boston Center
07:24AM 43.3497 -73.2939 265° West 380 437 35,900 540 Climbing Boston Center
07:25AM 43.3172 -73.4389 253° West 375 432 36,000  Climbing Boston Center
07:26AM 43.2475 -73.5403 227° Southwest 369 425 36,000  Level Boston Center
07:27AM 43.1589 -73.6497 222° Southwest 405 466 36,000  Level Boston Center
07:28AM 43.1056 -73.7539 235° Southwest 417 480 36,000  Level Boston Center
07:29AM 43.0994 -73.9186 267° West 374 430 36,000  Level Boston Center
07:30AM 43.1039 -74.0553 273° West 358 412 36,000  Level Boston Center
07:31AM 43.1103 -74.1892 274° West 358 412 36,000  Level Boston Center
07:32AM 43.1142 -74.3231 272° West 358 412 36,000  Level Boston Center
07:33AM 43.1183 -74.4569 272° West 358 412 36,000  Level Boston Center
07:34AM 43.1242 -74.5936 273° West 363 418 36,000  Level Boston Center
07:35AM 43.1278 -74.7275 272° West 363 418 36,000  Level Boston Center
07:36AM 43.1311 -74.8642 272° West 363 418 36,000  Level Boston Center
07:37AM 43.1344 -75.0008 272° West 368 423 36,000  Level Boston Center
07:38AM 43.1356 -75.1317 271° West 363 418 36,000  Level Boston Center
07:39AM 43.1406 -75.2686 273° West 363 418 36,000  Level Boston Center
07:40AM 43.1433 -75.4053 272° West 363 418 36,000  Level Boston Center
07:41AM 43.1481 -75.5394 273° West 363 418 36,000  Level Boston Center
07:42AM 43.1506 -75.6761 271° West 363 418 36,000  Level Boston Center
07:43AM 43.1333 -75.9167 264° West 360 414 36,000  Level Toronto Center
07:44AM 43.1333 -76.0167 270° West 360 414 36,000  Level Toronto Center
07:45AM 43.1500 -76.1667 279° West 360 414 36,000  Level Toronto Center
07:46AM 43.1500 -76.3000 270° West 360 414 36,000  Level Toronto Center
07:47AM 43.1500 -76.4333 270° West 350 403 36,000  Level Toronto Center
07:48AM 43.1500 -76.5667 270° West 350 403 36,000  Level Toronto Center
07:49AM 43.1500 -76.7000 270° West 350 403 36,000  Level Toronto Center
07:50AM 43.1500 -76.8167 270° West 350 403 36,000  Level Toronto Center
07:51AM 43.1500 -76.9667 270° West 350 403 36,000  Level Toronto Center
07:52AM 43.1500 -77.1000 270° West 350 403 36,000  Level Toronto Center
07:53AM 43.1333 -77.2333 260° West 350 403 36,000  Level Toronto Center
07:54AM 43.1333 -77.3667 270° West 350 403 36,000  Level Toronto Center
07:55AM 43.1500 -77.5000 280° West 350 403 36,000  Level Toronto Center
07:56AM 43.1500 -77.6500 270° West 350 403 36,000  Level Toronto Center
07:57AM 43.1333 -77.7667 259° West 350 403 36,000  Level Toronto Center
07:58AM 43.1333 -77.9000 270° West 350 403 36,000  Level Toronto Center
07:59AM 43.1333 -78.0333 270° West 360 414 36,000  Level Toronto Center
08:00AM 43.1333 -78.1667 270° West 360 414 36,000  Level Toronto Center
08:01AM 43.1167 -78.3167 261° West 360 414 36,000  Level Toronto Center
08:02AM 43.1167 -78.4500 270° West 360 414 36,000  Level Toronto Center
08:03AM 43.1333 -78.5833 280° West 360 414 36,000  Level Toronto Center
08:04AM 43.1333 -78.7167 270° West 360 414 36,000  Level Toronto Center
08:05AM 43.1167 -78.8500 260° West 370 426 36,000  Level Toronto Center
08:06AM 43.1167 -79.0000 270° West 370 426 36,000  Level Toronto Center
08:07AM 43.1167 -79.1500 270° West 370 426 36,000  Level Toronto Center
08:08AM 43.1000 -79.2833 260° West 380 437 36,000  Level Toronto Center
08:09AM 43.1000 -79.4333 270° West 380 437 36,000  Level Toronto Center
08:10AM 43.1000 -79.5667 270° West 380 437 36,000  Level Toronto Center
08:11AM 43.0833 -79.7167 261° West 380 437 36,000  Level Toronto Center
08:12AM 43.0833 -79.8667 270° West 380 437 36,000  Level Toronto Center
08:13AM 43.0833 -80.0000 270° West 380 437 36,000  Level Toronto Center
08:14AM 43.0667 -80.1500 261° West 380 437 36,000  Level Toronto Center
08:15AM 43.0667 -80.3000 270° West 380 437 36,000  Level Toronto Center
08:16AM 43.0667 -80.4333 270° West 380 437 36,000  Level Toronto Center
08:17AM 43.0500 -80.5833 261° West 380 437 36,000  Level Toronto Center
08:18AM 43.0500 -80.7333 270° West 380 437 36,000  Level Toronto Center
08:19AM 43.0333 -80.8667 260° West 380 437 36,000  Level Toronto Center
08:20AM 43.0167 -81.0000 260° West 380 437 36,000  Level Toronto Center
08:21AM 43.0167 -81.1333 270° West 370 426 36,000  Level Toronto Center
08:22AM 43.0167 -81.3000 270° West 370 426 36,000  Level Toronto Center
08:23AM 43.0167 -81.4333 270° West 370 426 36,000  Level Toronto Center
08:24AM 43.0167 -81.5667 270° West 370 426 36,000  Level Toronto Center
08:25AM 43.0167 -81.7000 270° West 370 426 36,000  Level Toronto Center
08:26AM 43.0167 -81.8500 270° West 370 426 36,000  Level Toronto Center
08:27AM 43.0000 -81.9833 260° West 370 426 36,000  Level Toronto Center
08:28AM 43.0000 -82.1333 270° West 370 426 36,000  Level Toronto Center
08:29AM 43.0000 -82.2833 270° West 370 426 36,000  Level Toronto Center
08:30AM 43.0000 -82.3833 270° West 370 426 36,000  Level Toronto Center
08:31AM 43.0000 -82.5500 270° West 360 414 36,000  Level Toronto Center
08:32AM 42.9833 -82.6667 259° West 350 403 36,000  Level Toronto Center
08:33AM 42.9833 -82.8000 270° West 340 391 36,000  Level Toronto Center
08:34AM 42.9833 -82.9333 270° West 340 391 36,000  Level Toronto Center
08:35AM 42.9833 -83.0667 270° West 350 403 36,000  Level Toronto Center
08:36AM 42.9833 -83.1833 270° West 350 403 36,000  Level Toronto Center
08:37AM 42.9667 -83.3167 260° West 350 403 36,000 -300 Level Toronto Center
08:38AM 42.9667 -83.4667 270° West 360 414 35,400 -840 Descending Toronto Center
08:40AM 42.9703 -83.6250 272° West 354 407 34,200 -960 Descending Cleveland Center
08:41AM 42.9644 -83.7608 267° West 360 414 33,300 -960 Descending Cleveland Center
08:42AM 42.9522 -83.8994 263° West 366 421 32,300 -660 Descending Cleveland Center
08:43AM 42.9378 -84.0375 262° West 371 427 32,000 -180 Descending Cleveland Center
08:44AM 42.9231 -84.1786 262° West 371 427 32,000  Level Cleveland Center
08:45AM 42.9083 -84.3194 262° West 371 427 32,000  Level Cleveland Center
08:46AM 42.8931 -84.4928 263° West 376 433 32,000  Level Chicago Center
08:47AM 42.8789 -84.6339 262° West 377 434 32,000  Level Chicago Center
08:48AM 42.8642 -84.7736 262° West 375 432 32,000  Level Chicago Center
08:49AM 42.8494 -84.9133 262° West 375 432 32,000  Level Chicago Center
08:50AM 42.8314 -85.0833 262° West 377 434 32,000  Level Chicago Center
08:51AM 42.8161 -85.2272 262° West 381 438 32,000  Level Chicago Center
08:52AM 42.8003 -85.3711 262° West 384 442 32,000 -240 Level Chicago Center
08:53AM 42.7836 -85.5150 261° West 384 442 31,600 -1,260 Descending Chicago Center
08:54AM 42.7575 -85.6564 256° West 384 442 29,400 -2,220 Descending Chicago Center
08:55AM 42.7328 -85.7917 256° West 374 430 27,100 -2,220 Descending Chicago Center
08:56AM 42.7089 -85.9242 256° West 363 418 24,900 -2,040 Descending Chicago Center
08:57AM 42.6856 -86.0539 256° West 355 409 22,900 -2,160 Descending Chicago Center
08:58AM 42.6586 -86.2014 256° West 337 388 20,500 -1,440 Descending Chicago Center
08:59AM 42.6367 -86.3169 256° West 321 369 20,000 -240 Descending Chicago Center
09:00AM 42.6147 -86.4292 255° West 309 356 20,000 -720 Level Chicago Center
09:01AM 42.5958 -86.5353 256° West 292 336 18,600 -1,500 Descending Chicago Center
09:02AM 42.5767 -86.6317 255° West 269 310 17,000 -1,560 Descending Chicago Center
09:03AM 42.5606 -86.7278 257° West 263 303 15,500 -1,620 Descending Chicago Center
09:04AM 42.5306 -86.8350 249° West 256 295 13,700 -1,620 Descending Chicago Center
09:06AM 42.5058 -86.9244 249° West 255 293 12,200 -1,440 Descending Chicago Center
09:07AM 42.4819 -87.0147 250° West 255 293 10,800 -1,080 Descending Chicago Center
09:08AM 42.4569 -87.0992 248° West 243 280 10,000 -360 Descending Chicago Center
09:09AM 42.4336 -87.1861 250° West 246 283 10,100 -300 Climbing Chicago Center
09:10AM 42.4106 -87.2725 250° West 247 284 9,400 -540 Descending Chicago Center
09:11AM 42.3858 -87.3567 248° West 243 280 9,000 -240 Descending Chicago Center
09:12AM 42.2994 -87.3589 181° South 295 339 9,000 -480 Level Chicago Center
09:13AM 42.2036 -87.3769 188° South 289 333 8,100 -960 Descending Chicago Center
09:14AM 42.1333 -87.4114 200° South 270 311 7,100 -1,020 Descending Chicago Center
09:15AM 42.0833 -87.4500 210° Southwest 270 311 6,300 -1,080 Descending Chicago TRACON
09:15AM 42.0333 -87.5000 217° Southwest 259 298 5,300 -720 Descending Chicago TRACON
09:16AM 41.9833 -87.5833 231° Southwest 252 290 5,000 -720 Descending Chicago TRACON
09:18AM 41.9833 -87.6667 270° West 217 250 3,900 -1,140 Descending Chicago TRACON
09:18AM 41.9833 -87.7500 270° West 207 238 2,800 -1,020 Descending Chicago TRACON
09:20AM 41.9833 -87.8167 270° West 146 168 1,900 -780 Descending Chicago TRACON
09:21AM 41.9833 -87.8500 270° West 126 145 1,200 -720 Descending Chicago TRACON
09:23AM 41.9667 -87.9000 217° Southwest  Level FlightAware Approximate